Current | Forecast
Updated: 5:00 PM JST on April 27, 2018
Observed at Yamagata Airport, Japan
Temperature 64°F
Humidity 59%
Dew Point 50°F
Wind NNE at 6 mph
Pressure 29.71 in (Steady)
Conditions Mostly Cloudy
Visibility 6.2 miles
UV 0 out of 16
Clouds (FEW) : 5000 ft
Mostly Cloudy (BKN) : 15000 ft
Yesterday's Maximum 63°F
Yesterday's Minimum 52°F approx.
Yesterday's Heating Degree Days 8 approx.
Sunrise4:44 AM JST
Sunset6:24 PM JST
Moon Rise3:25 PM JST
Moon Set3:23 AM JST
Moon PhaseMoon Phase
Waxing Gibbous
Raw METARMETAR RJSC 270800Z 02005KT 9999 FEW050 BKN150 BKN/// 18/10 Q1006


Monday
. High: 66° F.
Tuesday
. High: 68° F.
Wednesday
. High: 64° F.
Thursday
. High: 68° F.
Friday
. High: 69° F.
Saturday
. High: 66° F.
Sunday
. High: 66° F.
Monday
. High: 64° F.

Units: English | Metric

Find the Weather for any City, State or Zipcode, or Country:

U.S. State List | Severe Weather | Tropical Storms | Ski Conditions
United States | Canada | Central America | South America | Asia | Europe | Australia | Africa | Islands

Weather Underground

© Copyright 2018
The Weather Company, LLC